Time;durP1;ratioP1;P1;durP2;ratioP2;P2;SDS_P1;SDS_P2;PMS_P1;PMS_P2;Temp;Humidity;BMP_temperature;BMP_pressure;BME280_temperature;BME280_humidity;BME280_pressure;Samples;Min_cycle;Max_cycle;Signal;HPM_P1;HPM_P2
2022/03/23 00:01:09;;;;;;;32.70;15.37;;;8.50;99.90;;;8.91;56.48;101964.16;4949503;28;21428;-68
2022/03/23 00:03:37;;;;;;;31.90;17.20;;;8.50;99.90;;;8.84;56.97;101958.38;4937405;29;20644;-70
2022/03/23 00:06:04;;;;;;;35.47;16.33;;;8.40;99.90;;;8.83;57.17;101956.69;4941139;28;20640;-71
2022/03/23 00:08:31;;;;;;;35.30;17.80;;;8.40;99.90;;;8.83;57.14;101958.44;4971227;28;20718;-69
2022/03/23 00:10:58;;;;;;;32.00;16.73;;;8.40;99.90;;;8.68;56.75;101964.31;4966165;28;20636;-71
2022/03/23 00:13:25;;;;;;;34.00;16.63;;;8.30;99.90;;;8.58;57.38;101961.28;4961446;28;20651;-71
2022/03/23 00:15:54;;;;;;;33.53;17.07;;;8.20;99.90;;;8.55;57.85;101959.63;4965575;28;20661;-71
2022/03/23 00:18:21;;;;;;;34.28;18.45;;;8.20;99.90;;;8.60;57.44;101956.84;4974230;28;20736;-70
2022/03/23 00:20:48;;;;;;;30.33;16.77;;;8.20;99.90;;;8.69;56.47;101959.03;4966054;28;20216;-69
2022/03/23 00:23:15;;;;;;;33.37;16.30;;;8.30;99.90;;;8.69;56.99;101959.03;4966833;28;20687;-70
2022/03/23 00:25:42;;;;;;;31.47;18.43;;;8.30;99.90;;;8.63;57.39;101959.28;4971695;28;20619;-70
2022/03/23 00:28:09;;;;;;;32.10;18.40;;;8.20;99.90;;;8.57;56.94;101951.75;4948853;28;20667;-71
2022/03/23 00:30:37;;;;;;;32.75;16.70;;;8.20;99.90;;;8.60;57.34;101959.44;4965399;28;20635;-70
2022/03/23 00:33:24;;;;;;;30.17;13.67;;;8.20;99.90;;;8.52;58.50;101958.91;4970348;28;20706;-70
2022/03/23 00:35:53;;;;;;;33.20;16.58;;;8.10;99.90;;;8.47;58.40;101968.69;5026395;28;20731;-70
2022/03/23 00:38:20;;;;;;;29.13;14.73;;;8.10;99.90;;;8.44;58.32;101964.44;5010782;28;20209;-70
2022/03/23 00:40:47;;;;;;;31.20;16.17;;;8.00;99.90;;;8.50;58.55;101969.38;5023450;28;20640;-70
2022/03/23 00:43:14;;;;;;;31.98;17.20;;;8.10;99.90;;;8.40;58.68;101972.44;5009038;28;20737;-70
2022/03/23 00:45:41;;;;;;;35.37;18.87;;;7.90;99.90;;;8.34;57.64;101973.53;5025855;28;20203;-71
2022/03/23 00:48:08;;;;;;;29.92;15.38;;;7.90;99.90;;;8.36;57.32;101974.31;5027646;28;20660;-70
2022/03/23 00:50:35;;;;;;;28.70;16.20;;;7.90;99.90;;;8.30;57.74;101969.38;5026487;28;20593;-71
2022/03/23 00:53:02;;;;;;;28.90;16.27;;;8.00;99.90;;;8.35;58.03;101975.22;4994232;28;20312;-70
2022/03/23 00:55:29;;;;;;;31.27;17.15;;;7.90;99.90;;;8.34;57.95;101962.28;5019436;28;20202;-73
2022/03/23 00:57:56;;;;;;;33.90;16.43;;;7.90;99.90;;;8.30;57.78;101964.19;5026120;28;20206;-70
2022/03/23 01:00:23;;;;;;;30.83;16.43;;;7.90;99.90;;;8.39;57.13;101970.75;5012754;28;20623;-72
2022/03/23 01:02:50;;;;;;;29.53;16.13;;;7.90;99.90;;;8.42;57.38;101968.00;4995149;28;20645;-70
2022/03/23 01:05:17;;;;;;;34.58;16.50;;;8.00;99.90;;;8.28;58.22;101968.59;4997055;28;20621;-70
2022/03/23 01:07:46;;;;;;;33.55;15.48;;;7.80;99.90;;;8.31;57.54;101965.84;4995428;28;20603;-71
2022/03/23 01:10:14;;;;;;;35.63;15.98;;;7.90;99.90;;;8.29;58.29;101961.63;5011943;28;20293;-71
2022/03/23 01:12:44;;;;;;;31.38;13.75;;;7.90;99.90;;;8.35;57.38;101963.97;5013068;28;20261;-71
2022/03/23 01:15:14;;;;;;;31.80;15.75;;;7.90;99.90;;;8.25;58.15;101957.44;5013577;28;20207;-70
2022/03/23 01:17:42;;;;;;;28.63;17.52;;;7.80;99.90;;;8.02;58.81;101958.38;5013516;28;20623;-72
2022/03/23 01:20:12;;;;;;;30.38;15.50;;;7.80;99.90;;;8.10;59.07;101968.44;5012158;28;20202;-70
2022/03/23 01:22:41;;;;;;;26.70;15.50;;;7.70;99.90;;;8.09;59.01;101966.78;4995429;28;20226;-70
2022/03/23 01:25:13;;;;;;;27.17;12.95;;;7.60;99.90;;;8.08;58.53;101962.47;4993204;28;20207;-70
2022/03/23 01:27:42;;;;;;;25.42;12.40;;;7.70;99.90;;;8.03;59.09;101964.44;4992994;28;20282;-71
2022/03/23 01:30:13;;;;;;;25.02;13.05;;;7.60;99.90;;;7.97;59.05;101965.50;4976831;28;20199;-70
2022/03/23 01:32:42;;;;;;;25.90;12.50;;;7.60;99.90;;;7.88;60.04;101963.25;5009345;28;20233;-72
2022/03/23 01:35:10;;;;;;;28.63;15.20;;;7.50;99.90;;;7.75;59.89;101956.88;5013539;28;20622;-71
2022/03/23 01:37:37;;;;;;;27.98;13.85;;;7.40;99.90;;;7.69;60.34;101955.34;5013650;28;20217;-70
2022/03/23 01:40:08;;;;;;;28.85;15.25;;;7.40;99.90;;;7.66;59.52;101962.44;5007403;28;20203;-69
2022/03/23 01:42:35;;;;;;;28.58;15.70;;;7.30;99.90;;;7.64;60.81;101959.03;5012060;28;20711;-70
2022/03/23 01:45:05;;;;;;;30.48;14.88;;;7.30;99.90;;;7.56;61.10;101956.72;5012914;28;20209;-70
2022/03/23 01:47:33;;;;;;;32.90;15.65;;;7.20;99.90;;;7.54;60.39;101958.53;5014103;28;20233;-70
2022/03/23 01:50:00;;;;;;;32.08;14.88;;;7.20;99.90;;;7.51;61.17;101963.03;5013191;28;20289;-70
2022/03/23 01:52:31;;;;;;;28.23;14.95;;;7.10;99.90;;;7.44;61.24;101956.34;5013138;28;20294;-70
2022/03/23 01:55:05;;;;;;;32.92;16.20;;;7.10;99.90;;;7.47;60.11;101951.91;4994256;28;20218;-69
2022/03/23 01:57:32;;;;;;;26.45;14.75;;;7.10;99.90;;;7.56;59.95;101954.13;4989249;28;20576;-70
2022/03/23 01:59:59;;;;;;;27.65;14.10;;;7.10;99.90;;;7.62;59.77;101958.25;4995500;28;20207;-70
2022/03/23 02:02:26;;;;;;;30.25;15.98;;;7.20;99.90;;;7.57;60.58;101967.97;5011529;28;20203;-70
2022/03/23 02:04:53;;;;;;;24.52;13.10;;;7.10;99.90;;;7.56;60.10;101961.94;5012672;28;20214;-72
2022/03/23 02:07:19;;;;;;;27.17;12.40;;;7.10;99.90;;;7.62;60.11;101960.88;5012011;28;20202;-70
2022/03/23 02:09:46;;;;;;;23.60;11.30;;;7.20;99.90;;;7.63;59.38;101968.59;5012217;28;20208;-69
2022/03/23 02:12:13;;;;;;;25.42;11.52;;;7.20;99.90;;;7.65;59.41;101964.19;5011832;28;20209;-71
2022/03/23 02:14:40;;;;;;;22.30;10.70;;;7.30;99.90;;;7.63;60.19;101958.19;4993553;28;20213;-70
2022/03/23 02:17:08;;;;;;;26.27;12.98;;;7.30;99.90;;;7.56;60.69;101959.31;5013207;28;20202;-70
2022/03/23 02:19:35;;;;;;;26.05;13.43;;;7.20;99.90;;;7.49;61.14;101959.63;4995301;28;20741;-71
2022/03/23 02:22:02;;;;;;;28.50;15.25;;;7.10;99.90;;;7.49;60.00;101965.69;4993678;28;20221;-68
2022/03/23 02:24:32;;;;;;;28.38;14.57;;;7.10;99.90;;;7.44;60.48;101956.34;5010868;28;20301;-70
2022/03/23 02:27:00;;;;;;;30.52;13.82;;;7.10;99.90;;;7.39;60.15;101953.09;4994306;28;20850;-69
2022/03/23 02:29:31;;;;;;;27.08;15.43;;;7.00;99.90;;;7.36;60.94;101958.41;5012038;28;20353;-71
2022/03/23 02:32:00;;;;;;;28.98;14.57;;;7.00;99.90;;;7.32;61.12;101955.09;5013186;28;20214;-70
2022/03/23 02:34:29;;;;;;;27.60;13.65;;;6.90;99.90;;;7.33;60.57;101959.34;5007771;28;20227;-70
2022/03/23 02:37:00;;;;;;;27.90;13.27;;;7.00;99.90;;;7.32;60.78;101956.84;4991381;28;20286;-70
2022/03/23 02:39:27;;;;;;;30.35;12.68;;;7.00;99.90;;;7.31;60.83;101955.97;5012291;28;20311;-70
2022/03/23 02:41:56;;;;;;;22.75;11.77;;;6.90;99.90;;;7.33;60.98;101956.75;5011736;28;20212;-70
2022/03/23 02:44:26;;;;;;;25.13;12.57;;;7.00;99.90;;;7.32;61.09;101960.28;5005762;28;20914;-70
2022/03/23 02:46:53;;;;;;;27.63;12.02;;;6.90;99.90;;;7.27;59.98;101957.00;4993964;28;20600;-69
2022/03/23 02:49:20;;;;;;;26.05;12.93;;;6.90;99.90;;;7.21;60.37;101952.03;5006552;28;20584;-71
2022/03/23 02:51:50;;;;;;;24.40;12.07;;;6.90;99.90;;;7.15;61.08;101954.00;5010622;28;20852;-69
2022/03/23 03:03:17;;;;;;;22.27;11.15;;;6.70;99.90;;;6.94;61.99;101964.25;4997541;28;20237;-69
2022/03/23 03:05:44;;;;;;;18.08;8.77;;;6.60;99.90;;;6.97;61.67;101965.91;5012436;28;20211;-70
2022/03/23 03:10:57;;;;;;;15.27;7.35;;;6.50;99.90;;;6.81;62.82;101975.13;5009853;28;20203;-70
2022/03/23 03:13:24;;;;;;;14.38;7.18;;;6.40;99.90;;;6.65;63.36;101972.22;5009927;28;20593;-73
2022/03/23 03:15:52;;;;;;;13.23;7.40;;;6.30;99.90;;;6.48;64.51;101981.47;5012173;28;20213;-70
2022/03/23 03:18:19;;;;;;;21.15;8.20;;;6.10;99.90;;;6.41;64.35;101977.41;4976318;28;20854;-69
2022/03/23 03:20:46;;;;;;;15.82;8.68;;;6.00;99.90;;;6.35;64.30;101980.19;5011310;28;20245;-70
2022/03/23 03:23:13;;;;;;;18.55;9.30;;;6.00;99.90;;;6.25;64.91;101980.50;5010248;28;20226;-70
2022/03/23 03:25:40;;;;;;;18.55;9.80;;;5.90;99.90;;;6.18;65.58;101985.91;5010817;28;20698;-70
2022/03/23 03:28:07;;;;;;;17.98;9.55;;;5.80;99.90;;;6.17;65.58;101987.69;5010662;28;20222;-70
2022/03/23 03:30:35;;;;;;;16.90;9.15;;;5.80;99.90;;;6.19;65.84;101990.22;5009836;28;20199;-70
2022/03/23 03:33:02;;;;;;;17.63;10.07;;;5.80;99.90;;;6.23;65.32;101990.06;4993095;28;20219;-70
2022/03/23 03:35:28;;;;;;;19.35;9.27;;;5.90;99.90;;;6.18;65.08;101988.50;5009821;28;20198;-71
2022/03/23 03:37:55;;;;;;;19.83;8.80;;;5.80;99.90;;;6.20;65.34;101991.91;5007698;28;20213;-70
2022/03/23 03:40:25;;;;;;;13.82;8.00;;;5.80;99.90;;;6.15;65.42;101989.44;5007644;28;20203;-71
2022/03/23 03:42:52;;;;;;;21.65;9.95;;;5.80;99.90;;;6.17;65.50;101995.47;5009637;28;20305;-69
2022/03/23 03:45:19;;;;;;;21.70;10.40;;;5.80;99.90;;;6.14;66.25;101998.16;5003232;28;20205;-72
2022/03/23 03:47:45;;;;;;;24.65;11.88;;;5.80;99.90;;;6.07;65.72;102000.97;5009994;28;20206;-70
2022/03/23 03:50:13;;;;;;;22.10;12.25;;;5.70;99.90;;;6.15;64.97;102004.19;4993841;28;20662;-69
2022/03/23 03:52:40;;;;;;;27.58;13.60;;;5.80;99.90;;;6.09;64.97;102002.59;5010336;28;20242;-69
2022/03/23 03:55:07;;;;;;;22.60;11.85;;;5.80;99.90;;;6.26;64.65;102005.50;5009813;28;20202;-70
2022/03/23 03:57:34;;;;;;;21.95;11.40;;;5.90;99.90;;;6.21;64.80;102003.97;5005000;28;20199;-69
2022/03/23 04:00:03;;;;;;;16.17;8.20;;;5.90;99.90;;;6.20;64.43;102007.44;5009907;28;20205;-70
2022/03/23 04:02:30;;;;;;;18.95;9.43;;;5.80;99.90;;;6.18;65.38;102004.91;5009380;28;20191;-69
2022/03/23 04:04:57;;;;;;;17.45;8.95;;;5.80;99.90;;;6.13;65.58;102006.81;5001751;28;20280;-70
2022/03/23 04:07:24;;;;;;;18.95;7.85;;;5.80;99.90;;;6.10;66.00;102006.91;5009481;28;20209;-70
2022/03/23 04:09:51;;;;;;;16.60;8.20;;;5.80;99.90;;;6.05;65.96;102005.34;5008479;28;20256;-70
2022/03/23 04:12:18;;;;;;;17.42;7.93;;;5.70;99.90;;;6.04;66.02;102009.72;5010535;28;20205;-71
2022/03/23 04:14:46;;;;;;;19.67;9.35;;;5.70;99.90;;;5.97;66.61;102012.50;5009856;28;20207;-69
2022/03/23 04:17:13;;;;;;;17.73;8.70;;;5.60;99.90;;;5.88;66.99;102007.63;5008094;28;20588;-70
2022/03/23 04:19:40;;;;;;;22.35;9.73;;;5.50;99.90;;;5.88;67.30;102005.88;5009100;28;20201;-73
2022/03/23 04:22:07;;;;;;;16.83;8.88;;;5.50;99.90;;;5.91;66.73;102016.16;5008975;28;20211;-70
2022/03/23 04:24:34;;;;;;;15.27;8.55;;;5.60;99.90;;;5.89;66.99;102017.94;4992624;28;20219;-70
2022/03/23 04:27:01;;;;;;;17.30;9.10;;;5.50;99.90;;;5.85;67.06;102011.16;4992105;28;20206;-68
2022/03/23 04:29:28;;;;;;;17.00;9.50;;;5.50;99.90;;;5.85;66.90;102015.50;5010061;28;20222;-72
2022/03/23 04:31:55;;;;;;;17.85;8.40;;;5.50;99.90;;;5.86;66.95;102025.81;5009862;28;20207;-70
2022/03/23 04:34:22;;;;;;;18.30;9.50;;;5.50;99.90;;;5.84;67.17;102027.59;4992791;28;20229;-70
2022/03/23 04:36:49;;;;;;;17.25;8.25;;;5.50;99.90;;;5.82;67.31;102021.56;5013527;28;20202;-68
2022/03/23 04:39:15;;;;;;;14.75;7.68;;;5.50;99.90;;;5.83;67.49;102023.28;4994477;28;20208;-68
2022/03/23 04:41:43;;;;;;;20.88;7.65;;;5.50;99.90;;;5.76;67.93;102026.94;5028076;28;20207;-68
2022/03/23 04:44:10;;;;;;;21.48;9.13;;;5.40;99.90;;;5.76;67.60;102021.78;5012227;28;20233;-68
2022/03/23 04:46:37;;;;;;;13.55;6.75;;;5.40;99.90;;;5.71;67.67;102028.81;5028885;28;20206;-69
2022/03/23 04:49:03;;;;;;;13.77;7.90;;;5.40;99.90;;;5.74;67.29;102033.91;5019715;28;20305;-68
2022/03/23 04:51:31;;;;;;;15.75;7.95;;;5.40;99.90;;;5.71;67.46;102034.00;4995868;28;20198;-69
2022/03/23 04:53:58;;;;;;;21.80;9.20;;;5.30;99.90;;;5.63;67.75;102032.53;5013598;28;20226;-68
2022/03/23 04:56:25;;;;;;;19.90;9.00;;;5.30;99.90;;;5.64;67.59;102027.31;5012722;28;20261;-68
2022/03/23 04:58:54;;;;;;;17.58;9.02;;;5.30;99.90;;;5.67;67.50;102031.53;5004621;28;20215;-68
2022/03/23 05:01:21;;;;;;;16.10;8.38;;;5.30;99.90;;;5.58;68.19;102029.25;4987095;28;20202;-70
2022/03/23 05:03:49;;;;;;;9.82;6.30;;;5.20;99.90;;;5.51;68.21;102031.97;4994472;28;20333;-72
2022/03/23 05:06:16;;;;;;;13.27;7.50;;;5.20;99.90;;;5.51;67.99;102037.16;4987389;28;20275;-70
2022/03/23 05:08:43;;;;;;;15.70;7.60;;;5.20;99.90;;;5.53;68.19;102039.72;5011144;28;20236;-73
2022/03/23 05:11:12;;;;;;;17.13;8.65;;;5.20;99.90;;;5.50;68.08;102042.41;4995974;28;20598;-68
2022/03/23 05:13:40;;;;;;;15.95;8.05;;;5.10;99.90;;;5.52;68.08;102038.03;5005284;28;20219;-67
2022/03/23 05:16:07;;;;;;;12.30;7.43;;;5.20;99.90;;;5.49;67.84;102041.53;5010033;28;20227;-68
2022/03/23 05:18:34;;;;;;;18.92;8.98;;;5.10;99.90;;;5.50;67.97;102044.97;4994912;28;20207;-70
2022/03/23 05:21:02;;;;;;;13.38;7.15;;;5.20;99.90;;;5.52;68.11;102045.78;5012118;28;20216;-72
2022/03/23 05:23:29;;;;;;;18.45;8.95;;;5.20;99.90;;;5.53;67.56;102050.09;5011180;28;20229;-69
2022/03/23 05:25:56;;;;;;;19.48;9.90;;;5.20;99.90;;;5.50;67.66;102043.25;4994543;28;20588;-71
2022/03/23 05:28:29;;;;;;;18.42;9.45;;;5.20;99.90;;;5.55;67.40;102053.47;4995389;28;20227;-68
2022/03/23 05:30:56;;;;;;;23.17;11.57;;;5.20;99.90;;;5.60;66.59;102056.75;5012982;28;20201;-70
2022/03/23 05:33:23;;;;;;;23.17;10.90;;;5.30;99.90;;;5.73;65.81;102060.69;5010232;28;20222;-73
2022/03/23 05:35:50;;;;;;;14.38;8.80;;;5.40;99.90;;;5.79;65.49;102060.50;5012045;28;20195;-71
2022/03/23 05:38:17;;;;;;;14.93;9.77;;;5.50;99.90;;;5.92;64.88;102058.47;4994887;28;20205;-70
2022/03/23 05:40:44;;;;;;;19.83;8.70;;;5.60;99.90;;;6.07;64.46;102063.16;4992337;28;20649;-71
2022/03/23 05:43:11;;;;;;;14.73;7.72;;;5.80;99.90;;;6.21;65.00;102061.84;4985490;28;20803;-70
2022/03/23 05:45:38;;;;;;;18.17;8.20;;;6.00;99.90;;;6.39;64.59;102064.75;5007991;28;20214;-70
2022/03/23 05:48:05;;;;;;;13.85;7.50;;;6.30;99.90;;;6.58;63.88;102074.47;5011519;28;20206;-70
2022/03/23 05:50:33;;;;;;;15.07;8.70;;;6.40;99.90;;;6.78;63.31;102071.22;5010126;28;20677;-70
2022/03/23 05:53:00;;;;;;;14.95;8.77;;;6.70;99.90;;;7.06;62.34;102069.38;5012821;28;20234;-70
2022/03/23 05:55:27;;;;;;;17.95;9.10;;;7.00;99.90;;;7.38;62.30;102071.69;5012161;28;20211;-69
2022/03/23 05:57:55;;;;;;;18.85;9.07;;;7.40;99.90;;;7.78;60.38;102071.06;5012928;28;20630;-72
2022/03/23 06:00:22;;;;;;;16.58;8.23;;;7.90;99.90;;;8.17;59.44;102069.56;5010428;28;20848;-69
2022/03/23 06:02:50;;;;;;;16.70;9.60;;;8.30;99.90;;;8.58;57.21;102071.38;5012711;28;20237;-73
2022/03/23 06:05:17;;;;;;;19.52;10.27;;;8.80;99.90;;;8.94;55.93;102081.16;4992300;28;20203;-69
2022/03/23 06:07:44;;;;;;;21.10;11.50;;;9.20;99.90;;;9.43;54.84;102078.16;4998991;28;20217;-72
2022/03/23 06:10:12;;;;;;;20.87;11.40;;;9.70;99.50;;;9.94;52.90;102080.16;4993536;28;20752;-69
2022/03/23 06:12:38;;;;;;;20.43;10.17;;;10.30;97.60;;;10.47;52.13;102077.63;5011365;28;20657;-70
2022/03/23 06:15:08;;;;;;;19.63;9.60;;;10.90;96.00;;;11.00;49.96;102080.19;5012772;28;20618;-69
2022/03/23 06:17:36;;;;;;;24.80;11.47;;;11.50;94.10;;;11.56;48.38;102080.69;5011414;28;20741;-69
2022/03/23 06:20:05;;;;;;;16.23;10.30;;;12.00;92.20;;;12.12;47.06;102082.88;5010198;28;20632;-69
2022/03/23 06:22:32;;;;;;;22.97;12.53;;;12.60;90.30;;;12.68;45.95;102084.91;4983709;28;20645;-69
2022/03/23 06:24:59;;;;;;;16.40;9.17;;;13.20;87.10;;;13.18;44.15;102094.13;4991575;28;20614;-72
2022/03/23 06:27:27;;;;;;;23.50;12.20;;;13.70;82.50;;;13.63;42.59;102087.88;4991924;28;20617;-69
2022/03/23 06:29:54;;;;;;;26.00;13.40;;;14.20;77.50;;;14.03;41.38;102097.56;4995999;28;20816;-69
2022/03/23 06:32:22;;;;;;;30.90;14.03;;;14.80;73.40;;;14.44;40.43;102097.56;5011484;28;20733;-71
2022/03/23 06:34:49;;;;;;;22.00;12.70;;;15.30;69.00;;;14.87;39.27;102100.84;5010168;28;20810;-69
2022/03/23 06:37:15;;;;;;;20.93;12.23;;;15.80;65.80;;;15.37;38.60;102103.53;5003051;28;20617;-69
2022/03/23 06:39:42;;;;;;;26.27;13.10;;;16.30;63.90;;;15.90;37.70;102099.81;5010109;28;21148;-69
2022/03/23 06:42:09;;;;;;;25.97;14.03;;;16.90;62.00;;;16.35;37.17;102100.94;5011463;28;20633;-71
2022/03/23 06:44:38;;;;;;;21.90;12.30;;;17.40;59.80;;;16.75;35.65;102102.34;5012215;28;20644;-70
2022/03/23 06:47:05;;;;;;;25.80;13.10;;;17.80;57.80;;;17.12;35.58;102099.56;4993171;28;20660;-70
2022/03/23 06:49:32;;;;;;;24.67;12.47;;;18.00;56.70;;;17.39;35.00;102106.22;5010904;28;20661;-67
2022/03/23 06:51:59;;;;;;;26.47;14.23;;;18.40;55.50;;;17.87;33.72;102106.81;5009595;28;20634;-70
2022/03/23 06:54:25;;;;;;;23.23;13.60;;;19.00;53.80;;;18.34;33.14;102116.22;4992117;28;21260;-70
2022/03/23 06:56:52;;;;;;;28.20;15.80;;;19.60;52.40;;;18.74;32.33;102114.66;5008234;28;21197;-69
2022/03/23 06:59:19;;;;;;;30.83;17.10;;;20.00;51.00;;;19.19;31.25;102116.09;5002439;28;20626;-73
2022/03/23 07:01:47;;;;;;;29.23;16.00;;;20.60;49.60;;;19.47;30.41;102121.72;5010597;28;20624;-71
2022/03/23 07:04:14;;;;;;;26.37;16.20;;;20.90;48.10;;;19.50;30.59;102130.25;4993887;28;20661;-71
2022/03/23 07:06:41;;;;;;;29.33;16.60;;;20.90;47.70;;;19.78;30.04;102116.28;5011406;28;20633;-72
2022/03/23 07:11:54;;;;;;;23.90;15.17;;;21.10;46.50;;;19.89;29.39;102125.97;5003775;28;20638;-69
2022/03/23 07:14:21;;;;;;;27.00;15.90;;;21.10;46.10;;;20.18;29.17;102120.72;5006710;28;20745;-70
2022/03/23 07:16:48;;;;;;;27.20;17.20;;;21.50;45.60;;;20.61;28.45;102129.19;4991136;28;20615;-70
2022/03/23 07:19:14;;;;;;;27.20;15.90;;;21.90;44.90;;;20.83;28.42;102134.19;4992764;28;20622;-70
2022/03/23 07:21:41;;;;;;;29.13;16.87;;;22.00;44.80;;;20.98;28.12;102130.16;5010491;28;20659;-69
2022/03/23 07:24:08;;;;;;;27.67;15.87;;;22.10;44.40;;;21.43;28.04;102138.34;4991518;28;20756;-70
2022/03/23 07:26:35;;;;;;;28.37;16.77;;;22.50;44.10;;;21.81;27.04;102134.69;5010182;28;21142;-69
2022/03/23 07:29:03;;;;;;;29.03;16.50;;;22.90;43.60;;;22.27;26.63;102127.50;4992976;28;20669;-71
2022/03/23 07:31:30;;;;;;;28.40;17.17;;;23.40;42.80;;;22.60;26.04;102139.31;5011245;28;20613;-70
2022/03/23 07:34:00;;;;;;;29.30;17.10;;;23.70;42.00;;;22.79;25.85;102136.50;5009937;28;20672;-70
2022/03/23 07:36:32;;;;;;;26.47;16.90;;;23.90;41.50;;;22.59;26.00;102137.66;5005788;28;21204;-72
2022/03/23 07:39:00;;;;;;;26.87;16.97;;;23.70;41.40;;;22.71;25.68;102133.75;5009272;28;21148;-70
2022/03/23 07:41:26;;;;;;;26.13;16.43;;;23.50;41.30;;;22.65;25.63;102141.50;5015619;28;20644;-71
2022/03/23 07:43:53;;;;;;;26.07;16.57;;;23.40;41.20;;;22.56;25.94;102139.72;5000091;28;21029;-70
2022/03/23 07:46:20;;;;;;;28.00;18.30;;;23.30;41.20;;;22.79;25.04;102141.81;5015797;28;20621;-70
2022/03/23 07:48:47;;;;;;;28.40;17.83;;;23.40;40.60;;;22.92;25.07;102131.59;4972954;28;20654;-71
2022/03/23 07:51:14;;;;;;;30.03;17.20;;;23.40;40.80;;;23.22;24.60;102143.66;5005389;28;20645;-70
2022/03/23 07:53:41;;;;;;;28.97;17.70;;;23.60;40.30;;;23.73;23.87;102138.31;5008944;28;21298;-70
2022/03/23 07:56:08;;;;;;;25.97;16.97;;;24.00;39.90;;;23.75;23.73;102140.81;5009380;28;21049;-70
2022/03/23 07:58:36;;;;;;;26.43;17.00;;;23.90;39.70;;;23.95;24.16;102142.25;5007624;28;20633;-70
2022/03/23 08:01:03;;;;;;;22.60;16.00;;;24.30;39.60;;;24.23;23.06;102142.88;5007345;28;20622;-70
2022/03/23 08:03:30;;;;;;;22.07;16.00;;;24.60;38.60;;;23.95;23.22;102136.94;5014385;28;20657;-70
2022/03/23 08:05:57;;;;;;;22.23;15.83;;;24.20;38.40;;;23.96;22.85;102143.09;5011176;28;20716;-70
2022/03/23 08:08:24;;;;;;;26.00;15.50;;;24.20;38.40;;;24.38;22.32;102146.59;5009090;28;20637;-71
2022/03/23 08:10:52;;;;;;;22.53;16.03;;;24.40;38.20;;;24.77;21.87;102146.84;5012195;28;21260;-71
2022/03/23 08:13:19;;;;;;;26.07;16.20;;;25.00;37.80;;;25.11;21.91;102144.81;4996030;28;20652;-70
2022/03/23 08:15:46;;;;;;;29.73;18.43;;;25.30;37.50;;;24.62;23.09;102149.28;5002772;28;20621;-71
2022/03/23 08:18:15;;;;;;;24.97;15.67;;;25.20;37.60;;;25.50;22.01;102151.13;5029381;28;20634;-74
2022/03/23 08:20:42;;;;;;;17.60;12.97;;;25.80;37.30;;;26.04;21.51;102152.97;5027030;28;20975;-71
2022/03/23 08:23:15;;;;;;;25.53;16.67;;;26.30;36.90;;;26.59;21.12;102152.81;5012397;28;21045;-71
2022/03/23 08:25:43;;;;;;;23.93;17.00;;;26.90;36.80;;;27.29;20.38;102161.47;5008478;28;20648;-75
2022/03/23 08:28:14;;;;;;;23.43;16.27;;;27.60;35.90;;;27.65;19.92;102162.44;5009377;28;21205;-70
2022/03/23 08:30:43;;;;;;;20.00;15.97;;;28.20;35.40;;;27.87;19.65;102162.53;5011760;28;20665;-70
2022/03/23 08:33:10;;;;;;;21.00;16.57;;;28.60;34.80;;;28.22;18.93;102156.38;5024808;28;20723;-71
2022/03/23 08:35:39;;;;;;;23.77;17.47;;;29.30;34.30;;;28.06;19.05;102162.81;5034730;28;20606;-71
2022/03/23 08:38:07;;;;;;;23.30;16.37;;;29.70;34.10;;;28.40;19.06;102163.00;5018611;28;21219;-73
2022/03/23 08:40:35;;;;;;;19.47;15.20;;;29.50;33.90;;;29.64;17.81;102157.88;5014061;28;20616;-72
2022/03/23 08:43:03;;;;;;;20.77;16.03;;;30.70;33.30;;;30.26;17.64;102157.75;5018767;28;20647;-69
2022/03/23 08:45:30;;;;;;;22.40;17.90;;;31.70;32.70;;;30.39;18.04;102152.44;5020081;28;21216;-73
2022/03/23 08:47:57;;;;;;;21.63;16.23;;;31.90;32.40;;;29.13;18.45;102157.28;4995030;28;20625;-71
2022/03/23 08:50:24;;;;;;;21.70;16.67;;;31.60;32.10;;;30.48;17.06;102155.75;5012677;28;21270;-70
2022/03/23 08:52:53;;;;;;;20.87;16.60;;;32.00;31.90;;;31.18;17.22;102157.91;5009379;28;21011;-73
2022/03/23 08:55:22;;;;;;;20.07;15.40;;;32.90;31.50;;;31.99;16.42;102170.84;5013230;28;20645;-73
2022/03/23 08:57:50;;;;;;;18.27;15.00;;;34.00;31.20;;;32.51;15.96;102158.94;4995826;28;20617;-73
2022/03/23 09:00:17;;;;;;;17.67;14.30;;;34.80;30.60;;;33.42;15.20;102160.06;4994732;28;20637;-73
2022/03/23 09:02:44;;;;;;;24.00;17.43;;;35.70;30.00;;;34.31;15.24;102154.00;5012996;28;20653;-73
2022/03/23 09:05:14;;;;;;;19.20;16.20;;;36.80;29.80;;;35.05;nan;102162.47;4996199;28;20640;-73
2022/03/23 09:07:42;;;;;;;25.30;19.03;;;37.80;29.40;;;34.98;nan;102155.47;5021538;28;20633;-69
2022/03/23 09:10:13;;;;;;;23.23;17.40;;;38.00;29.20;;;34.74;nan;102165.47;5014599;28;20731;-69
2022/03/23 09:12:41;;;;;;;19.90;16.53;;;37.60;29.10;;;35.73;nan;102167.28;5012527;28;20657;-70
2022/03/23 09:15:11;;;;;;;20.83;16.83;;;38.30;29.00;;;36.43;nan;102160.56;4994980;28;20633;-70
2022/03/23 09:17:39;;;;;;;26.43;15.70;;;39.20;28.80;;;37.18;nan;102158.28;4996200;28;20636;-69
2022/03/23 09:20:09;;;;;;;18.33;16.37;;;40.00;28.30;;;37.59;nan;102158.88;4994827;28;20691;-68
2022/03/23 09:22:36;;;;;;;17.03;15.13;;;40.70;28.10;;;37.91;nan;102157.91;4986674;28;20643;-70
2022/03/23 09:25:12;;;;;;;18.90;16.10;;;41.10;28.10;;;38.07;nan;102156.19;5003196;28;20648;-69
2022/03/23 09:27:43;;;;;;;22.43;16.67;;;41.30;27.70;;;37.51;nan;102151.94;5006864;28;20597;-70
2022/03/23 09:30:13;;;;;;;18.50;15.00;;;41.40;27.50;;;38.05;nan;102142.84;4993071;28;20666;-68
2022/03/23 09:32:42;;;;;;;19.70;17.70;;;41.30;27.70;;;37.94;nan;102145.69;4975464;28;20653;-67
2022/03/23 09:35:10;;;;;;;21.07;17.13;;;41.30;27.50;;;38.09;nan;102140.41;5010832;28;20640;-67
2022/03/23 09:37:50;;;;;;;20.33;16.40;;;41.50;27.50;;;38.61;nan;102143.38;5011821;28;20660;-67
2022/03/23 09:40:30;;;;;;;19.40;17.33;;;42.00;27.70;;;39.02;nan;102150.81;5006832;28;20622;-65
2022/03/23 09:43:08;;;;;;;18.07;16.00;;;42.50;27.10;;;39.51;nan;102143.19;5012565;28;20652;-65
2022/03/23 09:48:09;;;;;;;21.30;17.63;;;43.30;27.00;;;38.82;nan;102137.03;5007974;28;20633;-65
2022/03/23 09:50:40;;;;;;;18.60;16.60;;;42.80;26.90;;;39.19;nan;102142.47;5011183;28;20673;-69
2022/03/23 09:53:08;;;;;;;17.43;15.70;;;42.70;26.80;;;39.43;nan;102138.22;5011112;28;20715;-68
2022/03/23 09:55:36;;;;;;;18.43;15.57;;;42.90;26.80;;;39.39;nan;102129.75;5009599;28;21386;-67
2022/03/23 09:58:06;;;;;;;18.37;16.37;;;43.10;26.70;;;39.93;nan;102134.91;4994564;28;20637;-69
2022/03/23 10:00:42;;;;;;;17.43;15.70;;;43.40;26.60;;;40.29;nan;102131.16;5016844;28;20630;-69
2022/03/23 10:03:09;;;;;;;19.33;16.63;;;43.80;26.50;;;40.36;nan;102125.44;5031601;28;20713;-67
2022/03/23 10:06:11;;;;;;;17.40;15.60;;;44.00;26.60;;;40.77;nan;102121.59;5030475;28;20631;-68
2022/03/23 10:09:15;;;;;;;16.10;13.90;;;44.10;26.30;;;40.57;nan;102122.41;5022119;28;20636;-67
2022/03/23 10:12:15;;;;;;;18.27;15.00;;;43.90;26.30;;;40.29;nan;102120.22;5023648;28;21054;-70
2022/03/23 10:15:22;;;;;;;16.97;15.17;;;43.50;26.10;;;40.72;nan;102114.19;5027806;28;20649;-67
2022/03/23 10:18:49;;;;;;;20.80;14.90;;;43.80;26.20;;;39.29;nan;102121.50;5008086;28;20632;-69
2022/03/23 10:21:21;;;;;;;21.60;16.60;;;43.70;26.00;;;40.01;nan;102118.00;5010173;28;20637;-70
2022/03/23 10:24:00;;;;;;;17.60;15.87;;;43.30;26.30;;;39.91;nan;102124.22;5010978;28;20665;-69
2022/03/23 10:26:30;;;;;;;21.50;17.17;;;43.20;26.30;;;39.61;nan;102113.22;5005770;28;20637;-69
2022/03/23 10:28:58;;;;;;;22.30;16.80;;;43.30;26.20;;;39.10;nan;102112.09;5010865;28;20629;-68
2022/03/23 10:31:27;;;;;;;18.50;16.67;;;42.70;26.20;;;39.19;nan;102110.53;5008986;28;20657;-68
2022/03/23 10:34:10;;;;;;;19.00;16.00;;;42.70;26.20;;;38.22;nan;102106.47;5012341;28;20645;-69